• Join FlightAware (Why Join?)
  • Login
  • US Flag 
12:57AM EDT


 

Airport Tracker/Info


-or-


 

Live Flight TrackerFlight Track Log ✈ TAM3719 ✈ 08-Jul-2013 ✈ SBBR / BSB - SBSP / CGH

Flight Track Log - Related Links

Times and Time Zones

All times are in EDT time to prevent confusion due to time zone crossing. See the TAM3719 flight status page for this flight to view local times or setup timezone preferences in your user account.

Time Position Orientation Groundspeed Altitude Reporting Facility
EDT Latitude Longitude Course Direction KTS MPH feet Rate Location/Type
04:27AM -15.8690 -47.9190 340° North 10 12  Level FlightAware
04:30AM -15.8690 -47.9170 90° East 31 36 420 Level FlightAware
04:31AM -15.8680 -47.9160 44° Northeast 28 32 720 Level FlightAware
04:31AM -15.8660 -47.9160 360° North 16 18 780 Level FlightAware
04:32AM -15.8650 -47.9170 316° Northwest 27 31 900 Level FlightAware
04:32AM -15.8650 -47.9190 270° West 19 22 960 Level FlightAware
04:33AM -15.8650 -47.9210 270° West 21 24 1,140 Level FlightAware
04:33AM -15.8650 -47.9240 270° West 23 26 1,260 Level FlightAware
04:34AM -15.8650 -47.9270 270° West 17 20 1,560 Level FlightAware
04:34AM -15.8650 -47.9280 270° West 30 35 1,980 Level FlightAware
04:35AM -15.8640 -47.9270 44° Northeast 11 13 2,460 Level FlightAware
04:35AM -15.8630 -47.9190 83° East 120 138 3,780 Level FlightAware
04:36AM -15.8620 -47.8960 87° East 164 189 3,800 5,520 Climbing FlightAware
04:36AM -15.8610 -47.8810 86° East 161 185 4,600 2,280 Climbing FlightAware
04:36AM -15.8610 -47.8590 90° East 156 180 5,600 1,500 Climbing FlightAware
04:37AM -15.8730 -47.8310 114° Southeast 194 223 6,400 1,140 Climbing FlightAware
04:37AM -15.8820 -47.8300 174° South 211 243 6,600 1,020 Climbing FlightAware
04:38AM -15.9160 -47.8340 186° South 259 298 7,100 1,320 Climbing FlightAware
04:38AM -15.9530 -47.8390 187° South 290 334 7,900 2,520 Climbing FlightAware
04:39AM -15.9890 -47.8430 186° South 283 326 9,500 2,340 Climbing FlightAware
04:39AM -16.0520 -47.8500 186° South 324 373 10,800 1,800 Climbing FlightAware
04:40AM -16.1120 -47.8570 186° South 346 398 12,100 2,280 Climbing FlightAware
04:41AM -16.1770 -47.8640 186° South 354 407 13,800 2,280 Climbing FlightAware
04:41AM -16.2430 -47.8710 186° South 368 423 15,200 2,220 Climbing FlightAware
04:42AM -16.3120 -47.8790 186° South 369 425 16,800 2,160 Climbing FlightAware
04:43AM -16.3790 -47.8860 186° South 376 433 18,100 2,040 Climbing FlightAware
04:43AM -16.4480 -47.8940 186° South 377 434 19,500 1,740 Climbing FlightAware
04:44AM -16.5390 -47.9040 186° South 382 440 20,900 1,560 Climbing FlightAware
04:45AM -16.6270 -47.9070 182° South 396 456 22,200 1,620 Climbing FlightAware
04:46AM -16.7230 -47.9100 182° South 396 456 23,600 840 Climbing FlightAware
04:47AM -16.7870 -47.9110 181° South 396 456 23,600  Level FlightAware
04:48AM -16.8630 -47.9130 181° South 396 456 23,600  Level FlightAware
04:48AM -16.9200 -47.9140 181° South 396 456 23,600  Level FlightAware
04:49AM -16.9940 -47.9150 181° South 396 456 23,600  Level FlightAware
04:50AM -17.0500 -47.9160 181° South 396 456 23,600 3,180 Level FlightAware
04:51AM -17.3060 -47.9360 184° South 443 510 29,900 3,360 Climbing FlightAware
04:52AM -17.3920 -47.9390 182° South 448 516 30,600 960 Climbing FlightAware
04:52AM -17.4630 -47.9420 182° South 449 517 31,200 1,260 Climbing FlightAware
04:53AM -17.5600 -47.9470 183° South 446 513 32,300 1,380 Climbing FlightAware
04:54AM -17.6330 -47.9500 182° South 441 507 33,100 1,200 Climbing FlightAware
04:54AM -17.7330 -47.9540 182° South 441 507 34,000 1,200 Climbing FlightAware
04:55AM -17.8130 -47.9580 183° South 435 501 34,900 1,020 Climbing FlightAware
04:56AM -17.9030 -47.9620 182° South 440 506 35,500 900 Climbing FlightAware
04:56AM -17.9870 -47.9660 183° South 436 502 36,200 840 Climbing FlightAware
04:57AM -18.0570 -47.9690 182° South 436 502 36,600 840 Climbing FlightAware
04:58AM -18.1450 -47.9730 182° South 432 497 37,300 660 Climbing FlightAware
04:58AM -18.2260 -47.9760 182° South 435 501 37,600 540 Climbing FlightAware
04:59AM -18.2980 -47.9790 182° South 434 499 38,000 300 Climbing FlightAware
05:00AM -18.3710 -47.9830 183° South 430 495 38,000  Level FlightAware
05:00AM -18.4660 -47.9870 182° South 428 493 38,000  Level FlightAware
05:01AM -18.5440 -47.9900 182° South 428 493 38,000  Level FlightAware
05:02AM -18.6280 -47.9940 183° South 430 495 38,000  Level FlightAware
05:02AM -18.7150 -47.9980 182° South 430 495 38,000  Level FlightAware
05:03AM -18.7920 -48.0010 182° South 429 494 38,000  Level FlightAware
05:04AM -18.8740 -48.0050 183° South 428 493 38,000  Level FlightAware
05:04AM -18.9510 -48.0090 183° South 426 490 38,000  Level FlightAware
05:05AM -19.0210 -48.0120 182° South 425 489 38,000  Level FlightAware
05:06AM -19.1110 -48.0160 182° South 424 488 38,000  Level FlightAware
05:06AM -19.1830 -48.0190 182° South 424 488 38,000  Level FlightAware
05:07AM -19.2620 -48.0220 182° South 423 487 38,000  Level FlightAware
05:08AM -19.3390 -48.0260 183° South 423 487 38,000  Level FlightAware
05:08AM -19.4180 -48.0290 182° South 424 488 38,000  Level FlightAware
05:09AM -19.4970 -48.0330 183° South 424 488 38,000  Level FlightAware
05:10AM -19.5760 -48.0370 183° South 425 489 38,000  Level FlightAware
05:10AM -19.6610 -48.0400 182° South 425 489 38,000  Level FlightAware
05:11AM -19.7460 -48.0440 183° South 425 489 38,000  Level FlightAware
05:12AM -19.8310 -48.0480 183° South 424 488 38,000  Level FlightAware
05:13AM -19.9100 -48.0520 183° South 424 488 38,000  Level FlightAware
05:13AM -19.9930 -48.0550 182° South 425 489 38,000  Level FlightAware
05:14AM -20.0810 -48.0590 182° South 425 489 38,000  Level FlightAware
05:14AM -20.1270 -48.0620 184° South 425 489 38,000  Level FlightAware
05:16AM -20.2580 -48.0670 182° South 425 489 38,000  Level FlightAware
05:16AM -20.3310 -48.0710 183° South 424 488 38,000  Level FlightAware
05:17AM -20.4200 -48.0750 182° South 425 489 38,000  Level FlightAware
05:18AM -20.5050 -48.0790 183° South 426 490 38,000  Level FlightAware
05:18AM -20.5850 -48.0820 182° South 426 490 38,000  Level FlightAware
05:19AM -20.6700 -48.0860 183° South 426 490 38,000  Level FlightAware
05:20AM -20.7450 -48.0900 183° South 426 490 38,000  Level FlightAware
05:20AM -20.8360 -48.0940 182° South 425 489 38,000  Level FlightAware
05:21AM -20.9110 -48.0970 182° South 425 489 38,000  Level FlightAware
05:22AM -20.9970 -48.1010 182° South 425 489 38,000  Level FlightAware
05:22AM -21.0800 -48.1050 183° South 424 488 38,000  Level FlightAware
05:23AM -21.1580 -48.1090 183° South 424 488 38,000  Level FlightAware
05:24AM -21.2480 -48.0990 174° South 436 502 38,000  Level FlightAware
05:25AM -21.3300 -48.0750 165° South 434 499 38,000  Level FlightAware
05:25AM -21.3960 -48.0560 165° South 433 498 38,000  Level FlightAware
05:26AM -21.4810 -48.0310 165° South 433 498 38,000  Level FlightAware
05:27AM -21.5590 -48.0090 165° South 432 497 38,000  Level FlightAware
05:27AM -21.6440 -47.9840 165° South 432 497 38,000  Level FlightAware
05:28AM -21.7230 -47.9610 165° South 432 497 38,000  Level FlightAware
05:29AM -21.8060 -47.9360 164° South 434 499 38,000  Level FlightAware
05:29AM -21.8780 -47.9150 165° South 434 499 38,000 -660 Level FlightAware
05:30AM -21.9540 -47.8930 165° South 440 506 37,200 -1,800 Descending FlightAware
05:31AM -22.0330 -47.8700 165° South 435 501 35,600 -2,340 Descending FlightAware
05:31AM -22.1150 -47.8460 165° South 430 495 33,900 -2,340 Descending FlightAware
05:32AM -22.1830 -47.8260 165° South 425 489 32,600 -2,280 Descending FlightAware
05:33AM -22.2630 -47.8020 164° South 420 483 31,100 -2,220 Descending FlightAware
05:33AM -22.3400 -47.7790 165° South 414 476 29,600 -2,220 Descending FlightAware
05:34AM -22.4210 -47.7550 165° South 409 471 28,000 -2,160 Descending FlightAware
05:35AM -22.4970 -47.7330 165° South 405 466 26,500 -2,100 Descending FlightAware
05:35AM -22.5640 -47.7130 165° South 400 460 25,200 -2,220 Descending FlightAware
05:36AM -22.6470 -47.6880 164° South 392 451 23,500 -2,100 Descending FlightAware
05:37AM -22.7200 -47.6380 148° Southeast 390 449 21,900 -1,980 Descending FlightAware
05:38AM -22.7740 -47.5870 139° Southeast 385 443 20,600 -2,100 Descending FlightAware
05:38AM -22.8350 -47.5310 140° Southeast 378 435 19,000 -2,640 Descending FlightAware
05:39AM -22.8750 -47.4940 140° Southeast 389 448 17,300 -2,220 Descending FlightAware
05:40AM -22.9370 -47.4360 139° Southeast 362 417 16,200 -1,740 Descending FlightAware
05:40AM -22.9860 -47.3910 140° Southeast 358 412 14,900 -2,100 Descending FlightAware
05:41AM -23.0420 -47.3390 139° Southeast 346 398 13,300 -1,920 Descending FlightAware
05:42AM -23.0920 -47.2930 140° Southeast 340 391 12,200 -1,200 Descending FlightAware
05:42AM -23.1400 -47.2480 139° Southeast 309 356 11,700 -720 Descending FlightAware
05:43AM -23.1840 -47.2070 139° Southeast 284 327 11,200 -1,080 Descending FlightAware
05:44AM -23.2240 -47.1700 140° Southeast 280 322 10,300 -1,260 Descending FlightAware
05:44AM -23.2460 -47.1490 139° Southeast 271 312 9,900 -720 Descending FlightAware
05:45AM -23.2820 -47.1160 140° Southeast 300 345 9,500 -900 Descending FlightAware
05:46AM -23.3220 -47.0800 140° Southeast 240 276 8,700 -1,260 Descending FlightAware
05:46AM -23.3470 -47.0570 140° Southeast 236 272 8,100 -1,200 Descending FlightAware
05:46AM -23.3570 -47.0480 140° Southeast 235 270 7,900 -1,080 Descending FlightAware
05:47AM -23.3860 -47.0200 138° Southeast 235 270 7,300 -1,080 Descending FlightAware
05:47AM -23.4090 -46.9980 139° Southeast 233 268 6,800 -1,080 Descending FlightAware
05:48AM -23.4280 -46.9800 139° Southeast 228 262 6,400 -1,080 Descending FlightAware
05:48AM -23.4400 -46.9680 137° Southeast 225 259 6,100 -720 Descending FlightAware
05:49AM -23.4620 -46.9470 139° Southeast 209 241 5,900 -480 Descending FlightAware
05:49AM -23.4820 -46.9280 139° Southeast 206 237 5,700 -360 Descending FlightAware
05:49AM -23.4880 -46.9160 119° Southeast 212 244 5,700 -300 Level FlightAware
05:50AM -23.4860 -46.8830 86° East 204 235 5,500 -300 Descending FlightAware
05:50AM -23.4840 -46.8550 86° East 192 221 5,400 -240 Descending FlightAware
05:51AM -23.4820 -46.8280 85° East 191 220 5,300 -300 Descending FlightAware
05:51AM -23.4810 -46.8090 87° East 193 222 5,200 -300 Descending FlightAware
05:51AM -23.4800 -46.7790 88° East 193 222 5,100 -180 Descending FlightAware
05:52AM -23.4930 -46.7480 115° Southeast 185 213 5,000 -360 Descending FlightAware
05:53AM -23.5130 -46.7350 149° Southeast 170 196 4,700 -660 Descending FlightAware
05:53AM -23.5250 -46.7270 149° Southeast 160 184 4,500 -900 Descending FlightAware
05:53AM -23.5420 -46.7150 147° Southeast 141 162 4,000 -840 Descending FlightAware
05:54AM -23.5590 -46.7030 147° Southeast 134 154 3,700 -600 Descending FlightAware
05:54AM -23.5740 -46.6930 149° Southeast 132 152 3,400 -720 Descending FlightAware
05:55AM -23.5860 -46.6850 149° Southeast 130 150 3,100 -780 Descending FlightAware
05:55AM -23.5980 -46.6760 146° Southeast 131 151 2,800 -720 Descending FlightAware
05:56AM -23.6120 -46.6660 147° Southeast 134 154 2,500 -480 Descending FlightAware
05:56AM -23.6180 -46.6630 155° Southeast 135 155 2,400 -240 Descending FlightAware
05:57AM -23.6180 -46.6440 90° East 135 155 -3,240 Descending FlightAware
05:58AM -23.6300 -46.6550 220° Southwest  Level FlightAware
05:58AM -23.6270 -46.6570 329° Northwest  Level FlightAware
05:59AM -23.6260 -46.6580 318° Northwest  Level FlightAware
05:59AM -23.6250 -46.6590 318° Northwest  Level FlightAware
06:00AM -23.6250 -46.6600 270° West  Level FlightAware
06:03AM -23.6267 -46.6554 112° Southeast  Level Estimated
06:04AM -23.6267 -46.6554 114° Southeast  Level Estimated
06:05AM -23.6267 -46.6554 114° Southeast  Level Estimated